sensor_id;sensor_type;location;lat;lon;timestamp;P1;durP1;ratioP1;P2;durP2;ratioP2
56381;SDS011;50261;51.150;4.470;2023-04-01T00:01:10;8.70;;;2.55;;
56381;SDS011;50261;51.150;4.470;2023-04-01T00:03:39;9.75;;;3.05;;
56381;SDS011;50261;51.150;4.470;2023-04-01T00:06:05;3.25;;;1.67;;
56381;SDS011;50261;51.150;4.470;2023-04-01T00:08:31;7.40;;;3.20;;
56381;SDS011;50261;51.150;4.470;2023-04-01T00:10:57;10.75;;;3.63;;
56381;SDS011;50261;51.150;4.470;2023-04-01T00:13:24;10.48;;;3.05;;
56381;SDS011;50261;51.150;4.470;2023-04-01T00:15:50;4.13;;;1.85;;
56381;SDS011;50261;51.150;4.470;2023-04-01T00:18:16;5.50;;;2.60;;
56381;SDS011;50261;51.150;4.470;2023-04-01T00:20:46;6.68;;;2.67;;
56381;SDS011;50261;51.150;4.470;2023-04-01T00:23:13;9.85;;;3.58;;
56381;SDS011;50261;51.150;4.470;2023-04-01T00:25:38;10.38;;;4.65;;
56381;SDS011;50261;51.150;4.470;2023-04-01T00:28:04;7.38;;;4.13;;
56381;SDS011;50261;51.150;4.470;2023-04-01T00:30:30;8.32;;;3.88;;
56381;SDS011;50261;51.150;4.470;2023-04-01T00:32:56;7.80;;;4.05;;
56381;SDS011;50261;51.150;4.470;2023-04-01T00:35:22;14.73;;;4.15;;
56381;SDS011;50261;51.150;4.470;2023-04-01T00:37:48;12.38;;;4.53;;
56381;SDS011;50261;51.150;4.470;2023-04-01T00:40:23;8.88;;;3.70;;
56381;SDS011;50261;51.150;4.470;2023-04-01T00:42:49;10.52;;;5.72;;
56381;SDS011;50261;51.150;4.470;2023-04-01T00:45:37;12.65;;;4.43;;
56381;SDS011;50261;51.150;4.470;2023-04-01T00:48:03;9.88;;;3.88;;
56381;SDS011;50261;51.150;4.470;2023-04-01T00:50:30;15.45;;;7.47;;
56381;SDS011;50261;51.150;4.470;2023-04-01T00:52:56;17.35;;;7.80;;
56381;SDS011;50261;51.150;4.470;2023-04-01T00:55:22;11.68;;;6.60;;
56381;SDS011;50261;51.150;4.470;2023-04-01T00:57:48;14.38;;;9.05;;
56381;SDS011;50261;51.150;4.470;2023-04-01T01:00:15;14.73;;;7.85;;
56381;SDS011;50261;51.150;4.470;2023-04-01T01:02:41;14.18;;;7.50;;
56381;SDS011;50261;51.150;4.470;2023-04-01T01:05:11;17.13;;;10.13;;
56381;SDS011;50261;51.150;4.470;2023-04-01T01:10:21;21.98;;;9.43;;
56381;SDS011;50261;51.150;4.470;2023-04-01T01:12:53;15.95;;;11.50;;
56381;SDS011;50261;51.150;4.470;2023-04-01T01:17:57;11.85;;;6.35;;
56381;SDS011;50261;51.150;4.470;2023-04-01T01:20:38;17.95;;;10.45;;
56381;SDS011;50261;51.150;4.470;2023-04-01T01:36:12;15.40;;;7.85;;
56381;SDS011;50261;51.150;4.470;2023-04-01T01:38:39;12.48;;;7.85;;
56381;SDS011;50261;51.150;4.470;2023-04-01T01:41:06;11.77;;;7.63;;
56381;SDS011;50261;51.150;4.470;2023-04-01T01:43:35;11.55;;;6.47;;
56381;SDS011;50261;51.150;4.470;2023-04-01T01:46:03;7.88;;;4.68;;
56381;SDS011;50261;51.150;4.470;2023-04-01T01:48:31;15.32;;;7.55;;
56381;SDS011;50261;51.150;4.470;2023-04-01T01:50:57;15.80;;;8.23;;
56381;SDS011;50261;51.150;4.470;2023-04-01T01:53:24;16.98;;;8.55;;
56381;SDS011;50261;51.150;4.470;2023-04-01T01:55:50;18.80;;;9.93;;
56381;SDS011;50261;51.150;4.470;2023-04-01T02:00:48;13.95;;;7.63;;
56381;SDS011;50261;51.150;4.470;2023-04-01T02:03:15;14.90;;;8.48;;
56381;SDS011;50261;51.150;4.470;2023-04-01T02:05:42;11.02;;;6.63;;
56381;SDS011;50261;51.150;4.470;2023-04-01T02:08:14;13.07;;;6.53;;
56381;SDS011;50261;51.150;4.470;2023-04-01T02:10:43;12.65;;;6.70;;
56381;SDS011;50261;51.150;4.470;2023-04-01T02:13:18;9.13;;;6.22;;
56381;SDS011;50261;51.150;4.470;2023-04-01T02:15:46;9.57;;;6.05;;
56381;SDS011;50261;51.150;4.470;2023-04-01T02:18:13;10.77;;;6.85;;
56381;SDS011;50261;51.150;4.470;2023-04-01T02:20:40;9.70;;;5.90;;
56381;SDS011;50261;51.150;4.470;2023-04-01T02:23:06;7.45;;;6.38;;
56381;SDS011;50261;51.150;4.470;2023-04-01T02:25:34;16.85;;;6.53;;
56381;SDS011;50261;51.150;4.470;2023-04-01T02:28:00;13.50;;;6.80;;
56381;SDS011;50261;51.150;4.470;2023-04-01T02:30:27;10.18;;;5.85;;
56381;SDS011;50261;51.150;4.470;2023-04-01T02:32:55;8.20;;;5.22;;
56381;SDS011;50261;51.150;4.470;2023-04-01T02:35:21;8.43;;;5.68;;
56381;SDS011;50261;51.150;4.470;2023-04-01T02:37:48;11.02;;;6.35;;
56381;SDS011;50261;51.150;4.470;2023-04-01T02:40:15;10.00;;;6.40;;
56381;SDS011;50261;51.150;4.470;2023-04-01T02:42:41;9.82;;;6.45;;
56381;SDS011;50261;51.150;4.470;2023-04-01T02:45:07;9.45;;;5.78;;
56381;SDS011;50261;51.150;4.470;2023-04-01T02:47:33;10.45;;;5.97;;
56381;SDS011;50261;51.150;4.470;2023-04-01T02:50:00;10.93;;;5.18;;
56381;SDS011;50261;51.150;4.470;2023-04-01T02:52:26;10.80;;;6.63;;
56381;SDS011;50261;51.150;4.470;2023-04-01T02:54:53;8.70;;;6.25;;
56381;SDS011;50261;51.150;4.470;2023-04-01T02:57:18;12.60;;;7.07;;
56381;SDS011;50261;51.150;4.470;2023-04-01T02:59:45;12.18;;;7.60;;
56381;SDS011;50261;51.150;4.470;2023-04-01T03:02:11;8.38;;;6.60;;
56381;SDS011;50261;51.150;4.470;2023-04-01T03:04:37;9.52;;;6.82;;
56381;SDS011;50261;51.150;4.470;2023-04-01T03:07:03;8.60;;;6.18;;
56381;SDS011;50261;51.150;4.470;2023-04-01T03:09:30;10.10;;;5.78;;
56381;SDS011;50261;51.150;4.470;2023-04-01T03:11:55;10.23;;;6.50;;
56381;SDS011;50261;51.150;4.470;2023-04-01T03:14:21;5.80;;;4.53;;
56381;SDS011;50261;51.150;4.470;2023-04-01T03:16:47;7.97;;;5.38;;
56381;SDS011;50261;51.150;4.470;2023-04-01T03:19:13;7.05;;;5.03;;
56381;SDS011;50261;51.150;4.470;2023-04-01T03:21:39;7.22;;;4.38;;
56381;SDS011;50261;51.150;4.470;2023-04-01T03:24:05;6.95;;;4.43;;
56381;SDS011;50261;51.150;4.470;2023-04-01T03:26:31;7.63;;;4.32;;
56381;SDS011;50261;51.150;4.470;2023-04-01T03:28:57;6.60;;;4.53;;
56381;SDS011;50261;51.150;4.470;2023-04-01T03:31:23;6.55;;;4.00;;
56381;SDS011;50261;51.150;4.470;2023-04-01T03:33:54;3.50;;;2.63;;
56381;SDS011;50261;51.150;4.470;2023-04-01T03:36:19;7.40;;;4.07;;
56381;SDS011;50261;51.150;4.470;2023-04-01T03:38:46;6.53;;;4.28;;
56381;SDS011;50261;51.150;4.470;2023-04-01T03:41:17;6.53;;;4.60;;
56381;SDS011;50261;51.150;4.470;2023-04-01T03:43:43;9.15;;;4.18;;
56381;SDS011;50261;51.150;4.470;2023-04-01T03:46:10;5.30;;;3.78;;
56381;SDS011;50261;51.150;4.470;2023-04-01T03:48:36;7.40;;;4.95;;
56381;SDS011;50261;51.150;4.470;2023-04-01T03:51:06;9.93;;;3.38;;
56381;SDS011;50261;51.150;4.470;2023-04-01T03:53:32;7.55;;;4.32;;
56381;SDS011;50261;51.150;4.470;2023-04-01T03:56:03;8.88;;;4.13;;
56381;SDS011;50261;51.150;4.470;2023-04-01T03:58:28;8.60;;;5.35;;
56381;SDS011;50261;51.150;4.470;2023-04-01T04:00:55;11.98;;;6.82;;
56381;SDS011;50261;51.150;4.470;2023-04-01T04:03:20;10.90;;;7.07;;
56381;SDS011;50261;51.150;4.470;2023-04-01T04:05:47;11.13;;;7.40;;
56381;SDS011;50261;51.150;4.470;2023-04-01T04:08:14;10.25;;;7.32;;
56381;SDS011;50261;51.150;4.470;2023-04-01T04:10:39;9.15;;;7.53;;
56381;SDS011;50261;51.150;4.470;2023-04-01T04:13:06;10.25;;;7.18;;
56381;SDS011;50261;51.150;4.470;2023-04-01T04:15:36;9.70;;;7.20;;
56381;SDS011;50261;51.150;4.470;2023-04-01T04:18:03;13.07;;;7.82;;
56381;SDS011;50261;51.150;4.470;2023-04-01T04:20:29;10.32;;;7.07;;
56381;SDS011;50261;51.150;4.470;2023-04-01T04:22:55;9.50;;;6.60;;
56381;SDS011;50261;51.150;4.470;2023-04-01T04:25:21;14.30;;;7.60;;
56381;SDS011;50261;51.150;4.470;2023-04-01T04:27:46;16.20;;;8.73;;
56381;SDS011;50261;51.150;4.470;2023-04-01T04:30:14;10.65;;;8.68;;
56381;SDS011;50261;51.150;4.470;2023-04-01T04:32:39;9.70;;;6.85;;
56381;SDS011;50261;51.150;4.470;2023-04-01T04:35:09;12.55;;;6.45;;
56381;SDS011;50261;51.150;4.470;2023-04-01T04:37:35;11.10;;;7.32;;
56381;SDS011;50261;51.150;4.470;2023-04-01T04:40:01;9.25;;;7.03;;
56381;SDS011;50261;51.150;4.470;2023-04-01T04:42:27;9.10;;;6.82;;
56381;SDS011;50261;51.150;4.470;2023-04-01T04:44:59;9.25;;;5.57;;
56381;SDS011;50261;51.150;4.470;2023-04-01T04:47:25;10.90;;;6.70;;
56381;SDS011;50261;51.150;4.470;2023-04-01T04:49:51;8.52;;;6.15;;
56381;SDS011;50261;51.150;4.470;2023-04-01T04:52:17;14.27;;;6.78;;
56381;SDS011;50261;51.150;4.470;2023-04-01T04:54:43;10.25;;;6.57;;
56381;SDS011;50261;51.150;4.470;2023-04-01T04:57:09;11.70;;;6.82;;
56381;SDS011;50261;51.150;4.470;2023-04-01T04:59:42;10.40;;;5.90;;
56381;SDS011;50261;51.150;4.470;2023-04-01T05:02:12;12.38;;;7.55;;
56381;SDS011;50261;51.150;4.470;2023-04-01T05:04:38;7.57;;;5.38;;
56381;SDS011;50261;51.150;4.470;2023-04-01T05:07:07;8.32;;;6.05;;
56381;SDS011;50261;51.150;4.470;2023-04-01T05:09:33;9.07;;;5.85;;
56381;SDS011;50261;51.150;4.470;2023-04-01T05:11:59;7.88;;;3.95;;
56381;SDS011;50261;51.150;4.470;2023-04-01T05:14:30;9.68;;;4.07;;
56381;SDS011;50261;51.150;4.470;2023-04-01T05:17:05;8.40;;;5.13;;
56381;SDS011;50261;51.150;4.470;2023-04-01T05:19:33;7.13;;;4.60;;
56381;SDS011;50261;51.150;4.470;2023-04-01T05:21:59;6.32;;;4.65;;
56381;SDS011;50261;51.150;4.470;2023-04-01T05:24:25;9.02;;;4.75;;
56381;SDS011;50261;51.150;4.470;2023-04-01T05:26:51;6.78;;;4.22;;
56381;SDS011;50261;51.150;4.470;2023-04-01T05:29:17;6.82;;;3.47;;
56381;SDS011;50261;51.150;4.470;2023-04-01T05:31:46;9.32;;;4.05;;
56381;SDS011;50261;51.150;4.470;2023-04-01T05:34:12;5.45;;;3.85;;
56381;SDS011;50261;51.150;4.470;2023-04-01T05:36:38;7.03;;;3.95;;
56381;SDS011;50261;51.150;4.470;2023-04-01T05:39:04;6.00;;;4.00;;
56381;SDS011;50261;51.150;4.470;2023-04-01T05:41:31;4.28;;;3.35;;
56381;SDS011;50261;51.150;4.470;2023-04-01T05:44:00;7.65;;;3.80;;
56381;SDS011;50261;51.150;4.470;2023-04-01T05:46:51;5.55;;;3.83;;
56381;SDS011;50261;51.150;4.470;2023-04-01T05:49:20;8.20;;;4.28;;
56381;SDS011;50261;51.150;4.470;2023-04-01T05:51:47;5.47;;;3.63;;
56381;SDS011;50261;51.150;4.470;2023-04-01T05:54:13;6.75;;;4.28;;
56381;SDS011;50261;51.150;4.470;2023-04-01T05:56:39;7.55;;;3.83;;
56381;SDS011;50261;51.150;4.470;2023-04-01T05:59:05;9.65;;;3.88;;
56381;SDS011;50261;51.150;4.470;2023-04-01T06:01:31;5.20;;;3.58;;
56381;SDS011;50261;51.150;4.470;2023-04-01T06:03:57;4.35;;;3.67;;
56381;SDS011;50261;51.150;4.470;2023-04-01T06:06:25;4.30;;;3.40;;
56381;SDS011;50261;51.150;4.470;2023-04-01T06:08:54;7.03;;;3.30;;
56381;SDS011;50261;51.150;4.470;2023-04-01T06:11:35;4.95;;;2.40;;
56381;SDS011;50261;51.150;4.470;2023-04-01T06:14:08;4.57;;;2.42;;
56381;SDS011;50261;51.150;4.470;2023-04-01T06:24:20;2.97;;;2.13;;
56381;SDS011;50261;51.150;4.470;2023-04-01T06:29:19;2.10;;;1.70;;
56381;SDS011;50261;51.150;4.470;2023-04-01T06:31:59;6.10;;;1.95;;
56381;SDS011;50261;51.150;4.470;2023-04-01T06:34:41;4.90;;;2.13;;
56381;SDS011;50261;51.150;4.470;2023-04-01T06:39:46;6.00;;;2.70;;
56381;SDS011;50261;51.150;4.470;2023-04-01T06:53:23;3.90;;;2.67;;
56381;SDS011;50261;51.150;4.470;2023-04-01T06:56:30;3.17;;;2.00;;
56381;SDS011;50261;51.150;4.470;2023-04-01T06:59:22;4.05;;;2.38;;
56381;SDS011;50261;51.150;4.470;2023-04-01T07:01:50;5.05;;;2.00;;
56381;SDS011;50261;51.150;4.470;2023-04-01T07:04:32;7.68;;;1.95;;
56381;SDS011;50261;51.150;4.470;2023-04-01T07:06:59;2.35;;;1.70;;
56381;SDS011;50261;51.150;4.470;2023-04-01T07:09:40;4.10;;;2.20;;
56381;SDS011;50261;51.150;4.470;2023-04-01T07:12:52;2.60;;;2.10;;
56381;SDS011;50261;51.150;4.470;2023-04-01T07:15:41;2.50;;;2.30;;
56381;SDS011;50261;51.150;4.470;2023-04-01T07:18:11;3.58;;;2.25;;
56381;SDS011;50261;51.150;4.470;2023-04-01T07:20:38;2.60;;;2.35;;
56381;SDS011;50261;51.150;4.470;2023-04-01T07:23:10;2.58;;;2.17;;
56381;SDS011;50261;51.150;4.470;2023-04-01T07:25:52;2.67;;;1.92;;
56381;SDS011;50261;51.150;4.470;2023-04-01T07:28:31;3.80;;;1.90;;
56381;SDS011;50261;51.150;4.470;2023-04-01T07:31:11;3.53;;;2.22;;
56381;SDS011;50261;51.150;4.470;2023-04-01T07:36:15;3.05;;;2.13;;
56381;SDS011;50261;51.150;4.470;2023-04-01T07:41:51;4.07;;;2.50;;
56381;SDS011;50261;51.150;4.470;2023-04-01T07:51:53;5.30;;;3.58;;
56381;SDS011;50261;51.150;4.470;2023-04-01T08:07:25;6.47;;;4.05;;
56381;SDS011;50261;51.150;4.470;2023-04-01T08:10:17;6.30;;;4.15;;
56381;SDS011;50261;51.150;4.470;2023-04-01T08:19:58;4.47;;;2.50;;
56381;SDS011;50261;51.150;4.470;2023-04-01T08:21:54;2.13;;;1.40;;
56381;SDS011;50261;51.150;4.470;2023-04-01T08:26:49;2.22;;;1.52;;
56381;SDS011;50261;51.150;4.470;2023-04-01T08:34:12;2.92;;;1.30;;
56381;SDS011;50261;51.150;4.470;2023-04-01T08:36:41;2.50;;;1.48;;
56381;SDS011;50261;51.150;4.470;2023-04-01T08:39:18;2.10;;;1.70;;
56381;SDS011;50261;51.150;4.470;2023-04-01T08:53:03;3.72;;;2.25;;
56381;SDS011;50261;51.150;4.470;2023-04-01T08:58:47;4.18;;;3.70;;
56381;SDS011;50261;51.150;4.470;2023-04-01T09:01:39;3.28;;;2.97;;
56381;SDS011;50261;51.150;4.470;2023-04-01T09:04:29;4.72;;;3.13;;
56381;SDS011;50261;51.150;4.470;2023-04-01T09:09:54;3.08;;;2.58;;
56381;SDS011;50261;51.150;4.470;2023-04-01T09:15:27;5.15;;;3.33;;
56381;SDS011;50261;51.150;4.470;2023-04-01T09:18:02;2.95;;;2.63;;
56381;SDS011;50261;51.150;4.470;2023-04-01T09:24:04;3.22;;;2.90;;
56381;SDS011;50261;51.150;4.470;2023-04-01T09:37:19;4.57;;;3.80;;
56381;SDS011;50261;51.150;4.470;2023-04-01T09:39:56;11.77;;;5.90;;
56381;SDS011;50261;51.150;4.470;2023-04-01T09:42:33;4.75;;;3.97;;
56381;SDS011;50261;51.150;4.470;2023-04-01T09:50:27;3.35;;;1.90;;
56381;SDS011;50261;51.150;4.470;2023-04-01T09:53:04;1.42;;;1.30;;
56381;SDS011;50261;51.150;4.470;2023-04-01T10:03:22;3.38;;;1.50;;
56381;SDS011;50261;51.150;4.470;2023-04-01T10:24:22;3.65;;;2.60;;
56381;SDS011;50261;51.150;4.470;2023-04-01T10:47:32;4.97;;;2.85;;
56381;SDS011;50261;51.150;4.470;2023-04-01T11:25:49;9.65;;;3.53;;
56381;SDS011;50261;51.150;4.470;2023-04-01T11:28:48;6.88;;;4.00;;
56381;SDS011;50261;51.150;4.470;2023-04-01T11:55:38;5.15;;;3.20;;
56381;SDS011;50261;51.150;4.470;2023-04-01T12:03:21;8.40;;;3.58;;
56381;SDS011;50261;51.150;4.470;2023-04-01T12:06:08;6.43;;;4.55;;
56381;SDS011;50261;51.150;4.470;2023-04-01T12:21:29;8.48;;;3.95;;
56381;SDS011;50261;51.150;4.470;2023-04-01T12:24:09;7.45;;;3.17;;
56381;SDS011;50261;51.150;4.470;2023-04-01T12:26:47;5.70;;;3.20;;
56381;SDS011;50261;51.150;4.470;2023-04-01T12:32:02;9.90;;;3.80;;
56381;SDS011;50261;51.150;4.470;2023-04-01T12:34:39;6.22;;;3.60;;
56381;SDS011;50261;51.150;4.470;2023-04-01T12:47:18;4.22;;;2.30;;
56381;SDS011;50261;51.150;4.470;2023-04-01T12:49:52;4.50;;;2.28;;
56381;SDS011;50261;51.150;4.470;2023-04-01T12:57:49;1.23;;;0.90;;
56381;SDS011;50261;51.150;4.470;2023-04-01T13:00:24;1.52;;;1.15;;
56381;SDS011;50261;51.150;4.470;2023-04-01T13:10:45;1.30;;;1.02;;
56381;SDS011;50261;51.150;4.470;2023-04-01T13:16:19;4.68;;;2.17;;
56381;SDS011;50261;51.150;4.470;2023-04-01T13:21:52;5.15;;;4.32;;
56381;SDS011;50261;51.150;4.470;2023-04-01T13:24:30;5.55;;;4.55;;
56381;SDS011;50261;51.150;4.470;2023-04-01T13:36:55;4.05;;;3.05;;
56381;SDS011;50261;51.150;4.470;2023-04-01T13:39:39;3.13;;;2.70;;
56381;SDS011;50261;51.150;4.470;2023-04-01T13:42:14;5.00;;;3.60;;
56381;SDS011;50261;51.150;4.470;2023-04-01T13:44:48;5.47;;;3.55;;
56381;SDS011;50261;51.150;4.470;2023-04-01T13:54:55;3.17;;;2.88;;
56381;SDS011;50261;51.150;4.470;2023-04-01T14:00:19;4.43;;;4.00;;
56381;SDS011;50261;51.150;4.470;2023-04-01T14:13:07;6.57;;;4.03;;
56381;SDS011;50261;51.150;4.470;2023-04-01T14:15:39;4.85;;;3.42;;
56381;SDS011;50261;51.150;4.470;2023-04-01T14:21:20;3.53;;;3.22;;
56381;SDS011;50261;51.150;4.470;2023-04-01T14:24:03;4.13;;;2.80;;
56381;SDS011;50261;51.150;4.470;2023-04-01T14:29:11;5.60;;;3.08;;
56381;SDS011;50261;51.150;4.470;2023-04-01T14:34:48;4.75;;;3.17;;
56381;SDS011;50261;51.150;4.470;2023-04-01T14:47:24;4.50;;;0.98;;
56381;SDS011;50261;51.150;4.470;2023-04-01T14:49:54;1.95;;;1.00;;
56381;SDS011;50261;51.150;4.470;2023-04-01T14:52:28;2.70;;;1.25;;
56381;SDS011;50261;51.150;4.470;2023-04-01T14:54:56;1.95;;;1.00;;
56381;SDS011;50261;51.150;4.470;2023-04-01T14:57:29;3.35;;;1.25;;
56381;SDS011;50261;51.150;4.470;2023-04-01T15:00:12;2.90;;;1.02;;
56381;SDS011;50261;51.150;4.470;2023-04-01T15:06:10;1.90;;;0.93;;
56381;SDS011;50261;51.150;4.470;2023-04-01T15:08:01;3.10;;;1.15;;
56381;SDS011;50261;51.150;4.470;2023-04-01T15:28:29;1.25;;;0.60;;
56381;SDS011;50261;51.150;4.470;2023-04-01T15:33:49;2.40;;;0.70;;
56381;SDS011;50261;51.150;4.470;2023-04-01T15:44:02;1.52;;;0.70;;
56381;SDS011;50261;51.150;4.470;2023-04-01T15:46:46;1.95;;;0.70;;
56381;SDS011;50261;51.150;4.470;2023-04-01T16:04:47;1.67;;;0.57;;
56381;SDS011;50261;51.150;4.470;2023-04-01T16:12:40;1.48;;;1.30;;
56381;SDS011;50261;51.150;4.470;2023-04-01T16:22:38;1.55;;;1.42;;
56381;SDS011;50261;51.150;4.470;2023-04-01T16:25:17;2.72;;;1.63;;
56381;SDS011;50261;51.150;4.470;2023-04-01T16:30:37;3.53;;;2.10;;
56381;SDS011;50261;51.150;4.470;2023-04-01T16:33:04;6.22;;;2.60;;
56381;SDS011;50261;51.150;4.470;2023-04-01T16:38:22;5.03;;;2.22;;
56381;SDS011;50261;51.150;4.470;2023-04-01T16:41:33;3.38;;;2.80;;
56381;SDS011;50261;51.150;4.470;2023-04-01T16:43:46;5.90;;;2.92;;
56381;SDS011;50261;51.150;4.470;2023-04-01T16:49:00;6.97;;;3.00;;
56381;SDS011;50261;51.150;4.470;2023-04-01T16:51:32;6.28;;;4.07;;
56381;SDS011;50261;51.150;4.470;2023-04-01T16:54:04;5.80;;;4.65;;
56381;SDS011;50261;51.150;4.470;2023-04-01T16:56:39;6.22;;;5.07;;
56381;SDS011;50261;51.150;4.470;2023-04-01T17:13:30;12.73;;;8.95;;
56381;SDS011;50261;51.150;4.470;2023-04-01T17:20:47;7.68;;;6.80;;
56381;SDS011;50261;51.150;4.470;2023-04-01T17:23:23;8.93;;;6.50;;
56381;SDS011;50261;51.150;4.470;2023-04-01T17:28:23;5.65;;;3.58;;
56381;SDS011;50261;51.150;4.470;2023-04-01T17:41:21;3.33;;;1.77;;
56381;SDS011;50261;51.150;4.470;2023-04-01T17:59:35;6.28;;;3.13;;
56381;SDS011;50261;51.150;4.470;2023-04-01T18:02:05;9.60;;;3.42;;
56381;SDS011;50261;51.150;4.470;2023-04-01T18:17:37;11.15;;;5.10;;
56381;SDS011;50261;51.150;4.470;2023-04-01T18:20:15;13.07;;;5.22;;
56381;SDS011;50261;51.150;4.470;2023-04-01T18:22:44;13.05;;;4.93;;
56381;SDS011;50261;51.150;4.470;2023-04-01T18:28:11;11.63;;;5.40;;
56381;SDS011;50261;51.150;4.470;2023-04-01T18:30:37;12.95;;;5.40;;
56381;SDS011;50261;51.150;4.470;2023-04-01T18:36:08;14.32;;;5.32;;
56381;SDS011;50261;51.150;4.470;2023-04-01T18:38:39;12.88;;;5.50;;
56381;SDS011;50261;51.150;4.470;2023-04-01T18:54:29;13.52;;;5.10;;
56381;SDS011;50261;51.150;4.470;2023-04-01T18:57:00;11.43;;;4.70;;
56381;SDS011;50261;51.150;4.470;2023-04-01T18:59:43;12.13;;;4.60;;
56381;SDS011;50261;51.150;4.470;2023-04-01T19:09:45;9.68;;;5.38;;
56381;SDS011;50261;51.150;4.470;2023-04-01T19:14:57;11.30;;;5.85;;
56381;SDS011;50261;51.150;4.470;2023-04-01T19:22:36;14.63;;;6.43;;
56381;SDS011;50261;51.150;4.470;2023-04-01T19:27:46;11.70;;;6.70;;
56381;SDS011;50261;51.150;4.470;2023-04-01T19:30:21;11.10;;;7.25;;
56381;SDS011;50261;51.150;4.470;2023-04-01T19:35:42;13.13;;;7.45;;
56381;SDS011;50261;51.150;4.470;2023-04-01T19:38:14;16.77;;;9.15;;
56381;SDS011;50261;51.150;4.470;2023-04-01T19:40:42;14.30;;;8.77;;
56381;SDS011;50261;51.150;4.470;2023-04-01T19:46:05;15.20;;;10.10;;
56381;SDS011;50261;51.150;4.470;2023-04-01T19:48:34;16.02;;;10.80;;
56381;SDS011;50261;51.150;4.470;2023-04-01T19:51:14;22.42;;;10.75;;
56381;SDS011;50261;51.150;4.470;2023-04-01T20:01:15;17.73;;;10.60;;
56381;SDS011;50261;51.150;4.470;2023-04-01T20:06:20;17.55;;;11.13;;
56381;SDS011;50261;51.150;4.470;2023-04-01T20:11:35;14.77;;;9.50;;
56381;SDS011;50261;51.150;4.470;2023-04-01T20:14:21;12.82;;;8.98;;
56381;SDS011;50261;51.150;4.470;2023-04-01T20:19:27;12.85;;;9.30;;
56381;SDS011;50261;51.150;4.470;2023-04-01T20:21:55;11.10;;;8.15;;
56381;SDS011;50261;51.150;4.470;2023-04-01T20:25:05;10.35;;;8.10;;
56381;SDS011;50261;51.150;4.470;2023-04-01T20:34:58;7.07;;;5.53;;
56381;SDS011;50261;51.150;4.470;2023-04-01T20:37:34;8.13;;;5.50;;
56381;SDS011;50261;51.150;4.470;2023-04-01T20:45:14;6.82;;;4.93;;
56381;SDS011;50261;51.150;4.470;2023-04-01T20:50:31;5.65;;;4.55;;
56381;SDS011;50261;51.150;4.470;2023-04-01T21:25:55;4.25;;;3.85;;
56381;SDS011;50261;51.150;4.470;2023-04-01T21:44:06;5.60;;;5.10;;
56381;SDS011;50261;51.150;4.470;2023-04-01T21:49:09;7.22;;;6.22;;
56381;SDS011;50261;51.150;4.470;2023-04-01T21:54:47;7.88;;;6.88;;
56381;SDS011;50261;51.150;4.470;2023-04-01T21:57:22;7.63;;;6.93;;
56381;SDS011;50261;51.150;4.470;2023-04-01T22:04:58;7.60;;;6.82;;
56381;SDS011;50261;51.150;4.470;2023-04-01T22:07:29;8.00;;;7.20;;
56381;SDS011;50261;51.150;4.470;2023-04-01T22:10:05;7.13;;;6.43;;
56381;SDS011;50261;51.150;4.470;2023-04-01T22:12:38;8.35;;;7.55;;
56381;SDS011;50261;51.150;4.470;2023-04-01T22:15:09;8.02;;;7.18;;
56381;SDS011;50261;51.150;4.470;2023-04-01T22:17:52;8.00;;;7.30;;
56381;SDS011;50261;51.150;4.470;2023-04-01T22:25:47;6.85;;;6.20;;
56381;SDS011;50261;51.150;4.470;2023-04-01T22:28:32;7.63;;;6.90;;
56381;SDS011;50261;51.150;4.470;2023-04-01T22:31:00;7.65;;;6.95;;
56381;SDS011;50261;51.150;4.470;2023-04-01T22:38:47;9.10;;;8.20;;
56381;SDS011;50261;51.150;4.470;2023-04-01T22:43:46;8.65;;;7.75;;
56381;SDS011;50261;51.150;4.470;2023-04-01T22:51:58;8.48;;;7.57;;
56381;SDS011;50261;51.150;4.470;2023-04-01T22:54:28;8.43;;;7.63;;
56381;SDS011;50261;51.150;4.470;2023-04-01T22:57:00;10.00;;;8.15;;
56381;SDS011;50261;51.150;4.470;2023-04-01T23:02:00;12.30;;;9.15;;
56381;SDS011;50261;51.150;4.470;2023-04-01T23:04:31;11.25;;;9.52;;
56381;SDS011;50261;51.150;4.470;2023-04-01T23:06:58;10.60;;;9.32;;
56381;SDS011;50261;51.150;4.470;2023-04-01T23:09:28;10.70;;;9.45;;
56381;SDS011;50261;51.150;4.470;2023-04-01T23:11:58;11.52;;;9.75;;
56381;SDS011;50261;51.150;4.470;2023-04-01T23:14:30;11.40;;;9.93;;
56381;SDS011;50261;51.150;4.470;2023-04-01T23:20:22;10.65;;;9.30;;
56381;SDS011;50261;51.150;4.470;2023-04-01T23:22:31;11.25;;;9.77;;
56381;SDS011;50261;51.150;4.470;2023-04-01T23:25:13;12.35;;;10.10;;
56381;SDS011;50261;51.150;4.470;2023-04-01T23:27:43;11.40;;;10.15;;
56381;SDS011;50261;51.150;4.470;2023-04-01T23:35:20;11.98;;;9.10;;
56381;SDS011;50261;51.150;4.470;2023-04-01T23:37:46;10.70;;;9.05;;
56381;SDS011;50261;51.150;4.470;2023-04-01T23:40:12;10.38;;;8.45;;
56381;SDS011;50261;51.150;4.470;2023-04-01T23:42:39;11.65;;;8.52;;
56381;SDS011;50261;51.150;4.470;2023-04-01T23:45:11;9.20;;;7.63;;
56381;SDS011;50261;51.150;4.470;2023-04-01T23:47:38;8.30;;;7.07;;
56381;SDS011;50261;51.150;4.470;2023-04-01T23:50:11;8.13;;;7.07;;
56381;SDS011;50261;51.150;4.470;2023-04-01T23:52:43;7.95;;;7.15;;
56381;SDS011;50261;51.150;4.470;2023-04-01T23:55:22;8.73;;;6.90;;
